7MA1 weather

Digital (Box 2) Heliport
Boxborough, Massachusetts, United States

Public forecast

Using degrees Fahrenheit for public forecast. Weather courtesy of forecast.io.

Closest aviation weather report (METAR) to Digital (Box 2) Heliport

Closest report is Fitchburg Municipal Airport, 10.2 nm (18.9 km) WNW. Retrieved 2020/01/26 07:27 UTC (17 minutes ago):

KFIT 260727Z AUTO 00000KT 1 1/4SM BR OVC008 03/02 A2968 RMK AO2 T00280017

Closest aviation forecast (TAF) to Digital (Box 2) Heliport

Forecast is more than 6 hours old.

Closest forecast is Laurence G Hanscom Field, 11.4 nm (21.0 km) E. Retrieved 2020-01-26 00:42 UTC (7 hours ago):

TAF KBED 252339Z 2600/2624 09013G21KT 3SM -RA OVC008 FM260200 11015G24KT 1 1/2SM +RA OVC003 FM260400 15008KT 1SM -RA OVC003 FM260600 21004KT P6SM OVC003 FM261000 25006KT P6SM BKN011 FM261400 26008KT P6SM SCT120